Overview Statistics Trail Chart Weather Telemetry Raw packets
 

This is the latest recevied telemetry packets stored in our database for station/object DL4ALF-9. If no packets are shown the sender has not sent any telemetry packets the latest 10 day(s).

Telemetry packets is used to share measurements like repeteater parameters, battery voltage, radiation readings (or any other measurements).

<< 1 2 3 4 >>
Time Press* Temp.in* Hum* eGAS* Temp.out*
1788633289 988.7 hPa 24.9 C deg 30.7 % 356 - 0 C deg
1788632932 988.7 hPa 24.9 C deg 30.7 % 356 - 0 C deg
1788626304 987.3 hPa 26.1 C deg 27.4 % 506 - 0 C deg
1788626304 987.3 hPa 26.1 C deg 27.4 % 506 - 0 C deg
1788623907 987 hPa 26.5 C deg 28.4 % 436 - 0 C deg
1788623819 987 hPa 26.5 C deg 28.4 % 436 - 0 C deg
1788620403 986.6 hPa 26.4 C deg 29.1 % 370 - 0 C deg
1788620118 986.6 hPa 26.4 C deg 29.1 % 370 - 0 C deg
1788577685 982.8 hPa 21.2 C deg 40.7 % 294 - 0 C deg
1788572196 981.9 hPa 21.4 C deg 40.9 % 293 - 0 C deg
1788570964 981.7 hPa 21.5 C deg 40.9 % 289 - 0 C deg
1788570964 981.7 hPa 21.5 C deg 40.9 % 289 - 0 C deg
1788568523 981.5 hPa 21.5 C deg 41.2 % 279 - 0 C deg
1788563056 981.1 hPa 21.7 C deg 41.4 % 262 - 0 C deg
1788563056 981.1 hPa 21.7 C deg 41.4 % 262 - 0 C deg
1788555907 980.6 hPa 22.3 C deg 42.2 % 264 - 0 C deg
1788555713 980.6 hPa 22.3 C deg 42.2 % 264 - 0 C deg
1788553898 980.2 hPa 21.9 C deg 43 % 280 - 0 C deg
1788552540 979.3 hPa 21.4 C deg 43.9 % 301 - 0 C deg
1788552045 979.3 hPa 21.4 C deg 43.9 % 301 - 0 C deg
1788550252 979 hPa 21.6 C deg 43.9 % 327 - 0 C deg
1788533757 976.4 hPa 22.1 C deg 41.1 % 311 - 0 C deg
1788528274 976.7 hPa 23.1 C deg 39.7 % 310 - 0 C deg
1788520928 978.3 hPa 22.4 C deg 41.8 % 355 - 0 C deg
1788509996 980.2 hPa 21.4 C deg 40.1 % 303 - 0 C deg
*Used Equation Coefficients:
Press: 0, 1, 0
Temp.in: 0, 1, 0
Hum: 0, 1, 0
eGAS: 0, 1, 0
Temp.out: 0, 1, 0

  • The parameter names for the analog channels will be Value1, Value2, Value3 (up to Value5) if station has not sent a PARAM-packet that specifies the parameter names for each analog channel.
  • Each analog value is a decimal number between 000 and 255 (according to APRS specifications). The receiver use the telemetry equation coefficientsto to restore the original sensor values. If no EQNS-packet with equation coefficients is sent we will show the values as is (this corresponds to the equation coefficients a=0, b=1 and c=0).
    The sent equation coefficients is used in the equation: a * value2 + b * value + c.
  • The units for the analog values will not be shown if station has not sent a UNIT-packet specifying what unit's to use.
  • The parameter names for the digital bits will be Bit1, Bit2, Bit3 (up to Bit8) if station has not sent a PARAM-packet that specifies the parameter names for each digital bit.
  • All bit labels will be named "On" if station has not sent a UNIT-packet that specifies the label of each bit.
  • A bit is considered to be On when the bit is 1 if station has not sent a BITS-packet that specifies another "Bit sense" (a BITS-packet specify the state of the bits that match the BIT labels)